Time;durP1;ratioP1;P1;durP2;ratioP2;P2;SDS_P1;SDS_P2;PMS_P1;PMS_P2;Temp;Humidity;BMP_temperature;BMP_pressure;BME280_temperature;BME280_humidity;BME280_pressure;Samples;Min_cycle;Max_cycle;Signal;HPM_P1;HPM_P2
2023/02/22 00:01:49;;;;;;;9.57;3.10;;;;;;;0.60;100.00;100991.88;5051916;28;20048;-82
2023/02/22 00:04:19;;;;;;;14.13;3.97;;;;;;;0.56;100.00;100997.81;5047943;28;20048;-82
2023/02/22 00:06:48;;;;;;;12.07;4.73;;;;;;;0.53;100.00;100988.22;5036797;28;20095;-82
2023/02/22 00:09:19;;;;;;;14.33;4.77;;;;;;;0.54;100.00;101002.09;5033363;28;20052;-83
2023/02/22 00:11:47;;;;;;;14.13;3.83;;;;;;;0.50;100.00;100997.66;5019033;28;20131;-81
2023/02/22 00:14:14;;;;;;;8.83;3.53;;;;;;;0.42;100.00;100999.19;5033409;28;20056;-82
2023/02/22 00:16:41;;;;;;;8.67;3.57;;;;;;;0.39;100.00;100993.91;5020602;28;20064;-81
2023/02/22 00:19:09;;;;;;;8.83;3.50;;;;;;;0.35;100.00;100992.97;5018867;28;20508;-82
2023/02/22 00:21:39;;;;;;;10.80;4.07;;;;;;;0.31;100.00;100996.31;5036491;28;20132;-82
2023/02/22 00:24:21;;;;;;;10.47;4.13;;;;;;;0.24;100.00;100994.38;5050122;28;20568;-81
2023/02/22 00:26:50;;;;;;;9.87;3.73;;;;;;;0.24;100.00;100989.19;5038730;28;20094;-80
2023/02/22 00:29:17;;;;;;;7.67;3.53;;;;;;;0.35;100.00;100995.56;5037429;28;21473;-82
2023/02/22 00:31:44;;;;;;;11.37;4.13;;;;;;;0.30;100.00;100997.16;5018681;28;20037;-81
2023/02/22 00:34:12;;;;;;;7.67;3.77;;;;;;;0.23;100.00;100993.50;5024883;28;20480;-81
2023/02/22 00:36:46;;;;;;;7.37;3.63;;;;;;;0.35;100.00;100992.09;5016589;28;20500;-81
2023/02/22 00:39:13;;;;;;;8.85;3.25;;;;;;;0.33;100.00;100986.81;5034470;28;20033;-82
2023/02/22 00:41:40;;;;;;;9.67;3.53;;;;;;;0.34;100.00;100982.50;5032990;28;20044;-81
2023/02/22 00:44:07;;;;;;;8.73;3.00;;;;;;;0.08;100.00;100994.81;5014696;28;20063;-81
2023/02/22 00:46:34;;;;;;;9.60;4.37;;;;;;;0.01;100.00;100995.50;5032290;28;20041;-81
2023/02/22 00:49:00;;;;;;;9.07;4.10;;;;;;;-0.02;100.00;100989.34;5030033;28;20049;-81
2023/02/22 00:51:28;;;;;;;7.60;3.47;;;;;;;-0.02;100.00;100991.97;5052927;28;20041;-81
2023/02/22 00:53:55;;;;;;;10.17;3.40;;;;;;;-0.06;100.00;100997.91;5033318;28;20037;-81
2023/02/22 00:56:25;;;;;;;12.47;3.83;;;;;;;-0.17;100.00;100996.75;5017622;28;20045;-81
2023/02/22 00:58:52;;;;;;;10.43;3.50;;;;;;;-0.02;100.00;100991.06;5048756;28;20033;-80
2023/02/22 01:01:19;;;;;;;7.43;3.67;;;;;;;-0.18;100.00;100988.88;5018984;28;20041;-81
2023/02/22 01:03:46;;;;;;;7.80;3.70;;;;;;;-0.23;100.00;100991.38;5013517;28;20124;-81
2023/02/22 01:06:13;;;;;;;13.37;5.03;;;;;;;-0.22;100.00;100993.13;5034706;28;20045;-81
2023/02/22 01:08:43;;;;;;;6.33;3.40;;;;;;;-0.29;100.00;100993.78;5029910;28;20045;-81
2023/02/22 01:11:10;;;;;;;10.07;3.70;;;;;;;-0.38;100.00;100985.75;5028125;28;20040;-80
2023/02/22 01:13:37;;;;;;;8.13;3.57;;;;;;;-0.32;100.00;100997.19;5037241;28;20509;-82
2023/02/22 01:16:07;;;;;;;9.33;3.60;;;;;;;-0.45;100.00;100994.19;5025798;28;20095;-81
2023/02/22 01:18:34;;;;;;;9.80;3.43;;;;;;;-0.47;100.00;100991.53;5103621;23;20060;-79
2023/02/22 01:21:02;;;;;;;11.90;4.50;;;;;;;-0.20;100.00;100994.03;5053417;28;20040;-78
2023/02/22 01:23:29;;;;;;;10.83;3.23;;;;;;;-0.30;100.00;100992.91;5037731;28;20494;-79
2023/02/22 01:25:56;;;;;;;9.07;2.90;;;;;;;-0.39;100.00;100986.56;5045806;28;20608;-81
2023/02/22 01:28:23;;;;;;;10.93;4.47;;;;;;;-0.58;100.00;100983.44;5012789;28;20087;-78
2023/02/22 01:30:50;;;;;;;9.73;4.33;;;;;;;-0.64;100.00;100990.16;5004810;28;20045;-77
2023/02/22 01:33:17;;;;;;;5.67;2.90;;;;;;;-0.69;100.00;100991.72;5035092;28;20026;-78
2023/02/22 01:35:45;;;;;;;11.13;3.97;;;;;;;-0.59;100.00;100988.56;5003915;28;20044;-79
2023/02/22 01:38:12;;;;;;;8.33;3.60;;;;;;;-0.52;100.00;100990.50;4996492;28;20042;-80
2023/02/22 01:40:41;;;;;;;9.20;3.23;;;;;;;-0.58;100.00;100983.44;5020973;28;20038;-79
2023/02/22 01:43:20;;;;;;;7.90;3.77;;;;;;;-0.72;100.00;100987.34;5021912;28;21531;-79
2023/02/22 01:45:48;;;;;;;5.67;3.17;;;;;;;-0.70;100.00;100989.97;5040479;28;20037;-81
2023/02/22 01:48:27;;;;;;;8.93;3.20;;;;;;;-0.76;100.00;100994.97;5001849;28;20037;-79
2023/02/22 01:51:12;;;;;;;11.53;3.30;;;;;;;-0.59;100.00;100991.16;5015273;28;20112;-79
2023/02/22 01:53:44;;;;;;;8.93;3.17;;;;;;;-0.64;100.00;100988.44;5030701;28;20041;-79
2023/02/22 01:56:12;;;;;;;9.33;3.23;;;;;;;-0.76;100.00;100988.06;5018724;28;20549;-81
2023/02/22 01:58:41;;;;;;;10.73;3.33;;;;;;;-0.87;100.00;100995.53;5019862;28;20050;-78
2023/02/22 02:01:08;;;;;;;5.23;3.40;;;;;;;-0.86;100.00;100989.50;5034345;28;20446;-79
2023/02/22 02:03:37;;;;;;;8.07;3.43;;;;;;;-0.85;100.00;100988.66;5000730;28;20065;-82
2023/02/22 02:06:10;;;;;;;6.53;3.23;;;;;;;-0.86;100.00;100991.22;5021649;28;20808;-80
2023/02/22 02:08:48;;;;;;;7.80;3.43;;;;;;;-0.97;100.00;100982.22;5000439;28;20144;-81
2023/02/22 02:11:18;;;;;;;9.33;3.60;;;;;;;-1.03;100.00;100980.31;5023081;28;20036;-79
2023/02/22 02:13:46;;;;;;;12.23;4.00;;;;;;;-0.99;100.00;100986.50;5015790;28;20454;-81
2023/02/22 02:16:13;;;;;;;6.90;3.40;;;;;;;-1.06;100.00;100975.03;5028883;28;20041;-81
2023/02/22 02:18:40;;;;;;;5.03;2.70;;;;;;;-1.13;100.00;100980.88;5003898;28;20041;-84
2023/02/22 02:21:28;;;;;;;7.17;3.40;;;;;;;-1.14;100.00;100974.81;5023890;28;20038;-80
2023/02/22 02:24:19;;;;;;;8.97;3.00;;;;;;;-1.09;100.00;100987.00;5009986;28;20560;-80
2023/02/22 02:27:07;;;;;;;8.20;3.00;;;;;;;-1.07;100.00;100983.66;5010945;28;20042;-83
2023/02/22 02:30:12;;;;;;;8.33;3.37;;;;;;;-0.96;100.00;100989.16;5031475;28;20042;-82
2023/02/22 02:33:04;;;;;;;12.07;2.70;;;;;;;-1.10;100.00;100982.66;5031529;28;20116;-81
2023/02/22 02:35:42;;;;;;;8.73;3.23;;;;;;;-1.17;100.00;100979.03;5013446;28;20038;-80
2023/02/22 02:38:25;;;;;;;7.33;3.27;;;;;;;-1.19;100.00;100976.34;5014364;28;20049;-83
2023/02/22 02:41:06;;;;;;;6.20;3.23;;;;;;;-1.13;100.00;100984.34;5025722;28;20041;-82
2023/02/22 02:43:46;;;;;;;9.47;3.57;;;;;;;-1.15;100.00;100983.41;5015569;28;20121;-80
2023/02/22 02:46:21;;;;;;;5.33;3.00;;;;;;;-1.18;100.00;100983.31;5028912;28;20047;-82
2023/02/22 02:48:55;;;;;;;8.60;4.20;;;;;;;-1.22;100.00;100975.38;5034507;28;20049;-80
2023/02/22 02:51:27;;;;;;;7.85;2.85;;;;;;;-1.31;100.00;100969.91;5012098;28;21043;-81
2023/02/22 02:53:54;;;;;;;7.90;2.80;;;;;;;-1.34;100.00;100982.78;4994175;28;20087;-82
2023/02/22 02:56:22;;;;;;;14.73;3.13;;;;;;;-1.38;100.00;100973.13;4994992;28;20096;-82
2023/02/22 02:58:51;;;;;;;6.87;3.03;;;;;;;-1.40;100.00;100975.69;5006451;28;20115;-83
2023/02/22 03:01:32;;;;;;;7.23;3.30;;;;;;;-1.50;100.00;100974.50;5033832;28;20043;-82
2023/02/22 03:04:09;;;;;;;5.77;2.90;;;;;;;-1.52;100.00;100970.94;5032084;28;20490;-83
2023/02/22 03:07:02;;;;;;;10.67;3.07;;;;;;;-1.42;100.00;100967.84;5023269;28;20145;-82
2023/02/22 03:09:37;;;;;;;11.23;3.97;;;;;;;-1.25;100.00;100971.00;5004173;28;20128;-83
2023/02/22 03:12:13;;;;;;;7.87;3.10;;;;;;;-1.43;100.00;100965.19;5036378;28;20091;-81
2023/02/22 03:15:05;;;;;;;8.90;3.43;;;;;;;-1.44;100.00;100973.78;5024432;28;20048;-84
2023/02/22 03:17:40;;;;;;;8.67;3.00;;;;;;;-1.54;100.00;100962.25;4996992;28;20037;-83
2023/02/22 03:20:42;;;;;;;7.43;3.27;;;;;;;-1.54;100.00;100977.81;5015421;28;20099;-83
2023/02/22 03:23:23;;;;;;;4.50;2.50;;;;;;;-1.49;100.00;100976.25;5005474;28;20038;-82
2023/02/22 03:25:55;;;;;;;7.17;2.60;;;;;;;-1.47;100.00;100968.53;5008817;28;20121;-83
2023/02/22 03:28:25;;;;;;;7.47;2.77;;;;;;;-1.33;100.00;100964.69;5002849;28;20405;-83
2023/02/22 03:31:00;;;;;;;10.83;4.07;;;;;;;-1.37;100.00;100960.22;5013841;28;20052;-83
2023/02/22 03:33:36;;;;;;;9.60;2.88;;;;;;;-1.50;100.00;100963.25;5004934;28;20037;-82
2023/02/22 03:36:14;;;;;;;10.57;4.03;;;;;;;-1.56;100.00;100958.75;4995045;28;20052;-82
2023/02/22 03:38:43;;;;;;;6.83;2.50;;;;;;;-1.55;100.00;100972.56;5010746;28;20045;-83
2023/02/22 03:41:10;;;;;;;6.13;2.50;;;;;;;-1.43;100.00;100967.78;5014954;28;20136;-82
2023/02/22 03:43:43;;;;;;;10.27;3.47;;;;;;;-1.52;100.00;100975.25;5015200;28;20041;-83
2023/02/22 03:46:11;;;;;;;7.13;3.30;;;;;;;-1.61;100.00;100975.81;5027873;28;20744;-81
2023/02/22 03:49:02;;;;;;;11.27;3.23;;;;;;;-1.64;100.00;100965.38;4991649;28;20042;-81
2023/02/22 03:51:29;;;;;;;18.23;3.97;;;;;;;-1.62;100.00;100974.06;5011036;28;20112;-81
2023/02/22 03:53:56;;;;;;;7.97;3.73;;;;;;;-1.55;100.00;100968.28;5029090;28;20030;-81
2023/02/22 03:56:34;;;;;;;4.83;2.90;;;;;;;-1.56;100.00;100963.03;5009054;28;20047;-81
2023/02/22 03:59:06;;;;;;;7.70;2.57;;;;;;;-1.65;100.00;100971.38;5013065;28;20037;-79
2023/02/22 04:01:33;;;;;;;10.20;4.90;;;;;;;-1.69;100.00;100969.50;5031784;28;20041;-82
2023/02/22 04:04:00;;;;;;;6.63;2.70;;;;;;;-1.57;100.00;100977.72;4994991;28;20045;-80
2023/02/22 04:06:27;;;;;;;5.83;2.70;;;;;;;-1.49;100.00;100975.38;4991517;28;20045;-82
2023/02/22 04:08:55;;;;;;;6.53;3.97;;;;;;;-1.48;100.00;100972.81;5036174;28;20040;-79
2023/02/22 04:11:22;;;;;;;9.53;3.37;;;;;;;-1.55;100.00;100980.34;5015110;28;20049;-82
2023/02/22 04:13:53;;;;;;;7.33;3.07;;;;;;;-1.56;100.00;100986.38;5022795;28;20041;-82
2023/02/22 04:16:20;;;;;;;7.40;3.33;;;;;;;-1.52;100.00;100990.81;5014747;28;20049;-80
2023/02/22 04:18:48;;;;;;;8.13;3.13;;;;;;;-1.53;100.00;100987.34;4997223;28;20426;-80
2023/02/22 04:21:15;;;;;;;7.10;3.10;;;;;;;-1.54;100.00;100989.88;5014687;28;20045;-81
2023/02/22 04:23:42;;;;;;;10.60;4.13;;;;;;;-1.74;100.00;100987.50;5007922;28;20072;-81
2023/02/22 04:26:08;;;;;;;7.33;2.67;;;;;;;-1.76;100.00;100990.88;5016784;28;20519;-81
2023/02/22 04:28:35;;;;;;;8.03;2.50;;;;;;;-1.73;100.00;100996.16;4998163;28;20050;-80
2023/02/22 04:31:02;;;;;;;10.37;3.20;;;;;;;-1.84;100.00;100993.19;4992058;28;20038;-80
2023/02/22 04:33:30;;;;;;;4.13;2.67;;;;;;;-1.87;100.00;100990.47;5018553;28;20414;-81
2023/02/22 04:35:58;;;;;;;6.07;2.00;;;;;;;-1.89;100.00;100993.84;5011350;28;20056;-81
2023/02/22 04:38:25;;;;;;;6.57;2.30;;;;;;;-1.89;100.00;100999.03;5031062;28;20056;-81
2023/02/22 04:40:55;;;;;;;4.83;2.83;;;;;;;-1.86;100.00;100988.78;5011263;28;20034;-81
2023/02/22 04:43:22;;;;;;;6.90;3.03;;;;;;;-1.90;100.00;100992.97;5013965;28;20046;-82
2023/02/22 04:45:49;;;;;;;6.20;2.20;;;;;;;-1.93;100.00;100997.16;4996050;28;20383;-82
2023/02/22 04:48:16;;;;;;;5.97;2.83;;;;;;;-1.94;100.00;100985.91;5012162;28;20049;-79
2023/02/22 04:50:42;;;;;;;5.87;2.80;;;;;;;-1.95;100.00;100988.44;5000832;28;20041;-80
2023/02/22 04:53:09;;;;;;;5.97;2.30;;;;;;;-1.89;100.00;100986.97;5015837;28;20037;-81
2023/02/22 04:55:36;;;;;;;7.87;2.83;;;;;;;-1.93;100.00;100974.75;5012315;28;20037;-80
2023/02/22 04:58:02;;;;;;;8.73;2.70;;;;;;;-1.99;100.00;100982.31;4998041;28;20095;-81
2023/02/22 05:00:29;;;;;;;9.33;3.10;;;;;;;-1.97;100.00;100983.22;5019351;28;20521;-82
2023/02/22 05:02:56;;;;;;;7.93;2.67;;;;;;;-1.92;100.00;100981.69;5029818;28;20045;-81
2023/02/22 05:05:24;;;;;;;14.60;2.90;;;;;;;-1.90;100.00;100981.75;5008270;28;20034;-81
2023/02/22 05:07:51;;;;;;;8.93;3.70;;;;;;;-1.79;100.00;100988.16;4996347;28;20048;-80
2023/02/22 05:10:18;;;;;;;6.03;2.93;;;;;;;-1.67;100.00;100985.13;4987639;28;20044;-81
2023/02/22 05:12:45;;;;;;;10.70;3.83;;;;;;;-1.59;100.00;100981.09;5008593;28;20487;-81
2023/02/22 05:15:17;;;;;;;8.10;3.20;;;;;;;-1.46;100.00;100976.34;5006650;28;20046;-81
2023/02/22 05:17:44;;;;;;;8.03;3.37;;;;;;;-1.39;100.00;100973.97;5003393;28;20447;-81
2023/02/22 05:20:22;;;;;;;7.33;2.93;;;;;;;-1.36;100.00;100976.66;4991519;28;20045;-82
2023/02/22 05:22:50;;;;;;;8.27;3.33;;;;;;;-1.42;100.00;100974.75;5003532;28;20029;-80
2023/02/22 05:25:19;;;;;;;7.33;2.77;;;;;;;-1.49;100.00;100981.44;5031580;28;20047;-81
2023/02/22 05:27:54;;;;;;;11.03;3.77;;;;;;;-1.65;100.00;100980.88;5038502;28;20037;-81
2023/02/22 05:30:30;;;;;;;8.17;3.00;;;;;;;-1.73;100.00;100985.78;5000689;28;20045;-82
2023/02/22 05:32:58;;;;;;;9.70;2.77;;;;;;;-1.74;100.00;100984.91;5015553;28;20049;-82
2023/02/22 05:35:25;;;;;;;4.33;2.33;;;;;;;-1.72;100.00;100985.84;5026827;28;20044;-81
2023/02/22 05:37:52;;;;;;;8.83;3.57;;;;;;;-1.64;100.00;100986.09;5002316;28;20053;-82
2023/02/22 05:40:21;;;;;;;7.40;2.83;;;;;;;-1.69;100.00;100979.88;4995228;28;20048;-83
2023/02/22 05:42:49;;;;;;;7.03;2.70;;;;;;;-1.72;100.00;100983.25;5016793;28;20041;-82
2023/02/22 05:45:18;;;;;;;10.57;4.50;;;;;;;-1.64;100.00;100977.44;5008401;28;20545;-81
2023/02/22 05:47:45;;;;;;;6.43;2.70;;;;;;;-1.44;100.00;100976.38;5012191;28;20041;-82
2023/02/22 05:50:13;;;;;;;7.37;2.77;;;;;;;-1.29;100.00;100976.91;5004993;28;20513;-80
2023/02/22 05:52:40;;;;;;;6.33;2.17;;;;;;;-1.33;100.00;100971.56;5003045;28;20060;-80
2023/02/22 05:55:07;;;;;;;11.83;3.60;;;;;;;-1.39;100.00;100974.84;5020969;28;20053;-82
2023/02/22 05:57:34;;;;;;;7.53;2.87;;;;;;;-1.41;100.00;100973.91;4994484;28;20045;-81
2023/02/22 06:00:08;;;;;;;13.70;3.47;;;;;;;-1.44;100.00;100984.16;4996526;28;20128;-82
2023/02/22 06:02:35;;;;;;;5.85;2.88;;;;;;;-1.62;100.00;100976.66;5014391;28;20149;-83
2023/02/22 06:05:02;;;;;;;11.93;3.23;;;;;;;-1.72;100.00;100980.66;5014366;28;20045;-82
2023/02/22 06:07:28;;;;;;;5.97;2.60;;;;;;;-1.66;100.00;100984.28;4997888;28;20042;-81
2023/02/22 06:09:55;;;;;;;4.47;2.23;;;;;;;-1.79;100.00;100986.44;4987775;28;20047;-83
2023/02/22 06:12:22;;;;;;;5.93;3.10;;;;;;;-1.92;100.00;100991.16;4994937;28;20781;-82
2023/02/22 06:14:48;;;;;;;4.60;2.60;;;;;;;-1.98;100.00;100999.59;5000711;28;20044;-81
2023/02/22 06:17:15;;;;;;;5.23;2.30;;;;;;;-1.98;100.00;100997.88;4998001;28;20049;-82
2023/02/22 06:19:44;;;;;;;7.50;2.70;;;;;;;-2.00;100.00;101002.13;5014685;28;20037;-83
2023/02/22 06:22:16;;;;;;;7.97;2.53;;;;;;;-1.97;100.00;100996.16;5000628;28;20103;-80
2023/02/22 06:24:43;;;;;;;8.80;3.00;;;;;;;-1.92;100.00;101005.00;5010425;28;20064;-82
2023/02/22 06:27:10;;;;;;;7.17;3.00;;;;;;;-1.90;100.00;101003.34;5009069;28;20050;-82
2023/02/22 06:29:37;;;;;;;5.07;2.00;;;;;;;-1.83;100.00;100994.06;5024062;28;20049;-81
2023/02/22 06:32:04;;;;;;;6.77;2.50;;;;;;;-1.89;100.00;101009.38;5012414;28;20041;-80
2023/02/22 06:34:31;;;;;;;8.57;3.20;;;;;;;-1.93;100.00;101008.41;5012528;28;20037;-81
2023/02/22 06:36:57;;;;;;;5.27;2.50;;;;;;;-1.93;100.00;101013.59;5011893;28;20045;-80
2023/02/22 06:39:25;;;;;;;6.27;3.07;;;;;;;-1.93;100.00;101011.00;5013312;28;20579;-79
2023/02/22 06:41:54;;;;;;;7.83;3.17;;;;;;;-1.93;100.00;101013.59;5008126;28;20050;-81
2023/02/22 06:44:20;;;;;;;6.20;2.47;;;;;;;-1.92;100.00;101019.66;4993593;28;20038;-81
2023/02/22 06:46:49;;;;;;;9.17;2.80;;;;;;;-1.79;100.00;101021.81;5011997;28;20179;-81
2023/02/22 06:49:18;;;;;;;10.60;3.30;;;;;;;-1.76;100.00;101021.97;4990960;28;20100;-80
2023/02/22 06:51:45;;;;;;;8.03;2.63;;;;;;;-1.82;100.00;101029.50;5011651;28;20050;-80
2023/02/22 06:54:12;;;;;;;5.87;2.97;;;;;;;-1.82;100.00;101026.91;5028358;28;20093;-81
2023/02/22 06:56:39;;;;;;;5.30;2.27;;;;;;;-1.79;100.00;101024.41;5019332;28;20041;-79
2023/02/22 06:59:07;;;;;;;11.90;3.17;;;;;;;-1.77;100.00;101025.34;5032022;28;20045;-81
2023/02/22 07:01:34;;;;;;;4.93;2.40;;;;;;;-1.74;100.00;101026.34;5012311;28;20133;-83
2023/02/22 07:04:00;;;;;;;8.80;3.43;;;;;;;-1.72;100.00;101014.34;5027743;28;20042;-83
2023/02/22 07:06:27;;;;;;;8.20;2.70;;;;;;;-1.66;100.00;101031.81;5021699;28;20392;-80
2023/02/22 07:08:54;;;;;;;5.17;2.30;;;;;;;-1.61;100.00;101030.22;4996847;28;20056;-83
2023/02/22 07:11:20;;;;;;;6.90;3.07;;;;;;;-1.51;100.00;101024.56;4985935;28;20045;-82
2023/02/22 07:13:47;;;;;;;7.27;2.57;;;;;;;-1.42;100.00;101026.59;5011902;23;20041;-80
2023/02/22 07:16:14;;;;;;;8.83;3.03;;;;;;;-1.33;100.00;101026.88;4985753;28;20160;-80
2023/02/22 07:18:40;;;;;;;6.13;2.57;;;;;;;-1.19;100.00;101033.38;5034706;23;20034;-78
2023/02/22 07:21:07;;;;;;;6.80;3.23;;;;;;;-1.03;100.00;101033.88;5025813;28;20038;-78
2023/02/22 07:23:34;;;;;;;5.53;2.20;;;;;;;-0.87;100.00;101029.25;5042706;28;20053;-78
2023/02/22 07:26:01;;;;;;;15.70;3.37;;;;;;;-0.71;100.00;101040.09;5012468;28;20049;-78
2023/02/22 07:28:28;;;;;;;6.10;2.87;;;;;;;-0.57;100.00;101033.63;4997658;28;20511;-78
2023/02/22 07:30:54;;;;;;;5.87;3.23;;;;;;;-0.49;100.00;101039.06;5010922;28;20081;-78
2023/02/22 07:33:21;;;;;;;7.20;2.73;;;;;;;-0.45;100.00;101040.91;5011539;28;20037;-78
2023/02/22 07:35:49;;;;;;;6.20;2.80;;;;;;;-0.37;100.00;101045.47;4997540;28;20176;-78
2023/02/22 07:38:17;;;;;;;7.47;2.60;;;;;;;-0.32;100.00;101037.84;4997271;28;20045;-78
2023/02/22 07:40:44;;;;;;;5.63;2.80;;;;;;;-0.36;100.00;101041.16;4996152;28;20050;-78
2023/02/22 07:43:24;;;;;;;11.77;3.63;;;;;;;-0.46;100.00;101040.03;5026515;28;20038;-78
2023/02/22 07:45:52;;;;;;;7.77;3.80;;;;;;;-0.43;100.00;101045.28;4993790;28;20065;-78
2023/02/22 07:48:21;;;;;;;7.40;2.70;;;;;;;-0.42;100.00;101035.78;4993706;28;20645;-78
2023/02/22 07:50:48;;;;;;;6.53;2.90;;;;;;;-0.30;100.00;101034.44;5014264;28;20053;-78
2023/02/22 07:53:29;;;;;;;9.97;3.60;;;;;;;-0.28;100.00;101035.38;4986916;28;20042;-80
2023/02/22 07:56:01;;;;;;;7.47;3.00;;;;;;;-0.12;100.00;101025.44;5007429;28;20038;-80
2023/02/22 07:58:29;;;;;;;4.80;2.37;;;;;;;0.07;100.00;101029.41;4995231;28;20070;-80
2023/02/22 08:00:56;;;;;;;10.43;2.93;;;;;;;0.21;100.00;101030.69;4976297;28;20530;-80
2023/02/22 08:03:24;;;;;;;6.97;2.57;;;;;;;0.30;100.00;101024.84;4992472;28;20038;-82
2023/02/22 08:05:53;;;;;;;6.53;3.03;;;;;;;0.47;100.00;101024.47;4994534;28;20065;-82
2023/02/22 08:08:20;;;;;;;6.17;2.63;;;;;;;0.54;100.00;101028.09;4994293;28;20057;-81
2023/02/22 08:10:48;;;;;;;6.47;2.57;;;;;;;0.60;100.00;101023.06;4975826;28;20041;-81
2023/02/22 08:13:16;;;;;;;6.27;2.77;;;;;;;0.79;100.00;101027.00;4973555;28;20069;-82
2023/02/22 08:15:43;;;;;;;7.97;3.07;;;;;;;0.97;100.00;101035.25;4975454;28;20407;-81
2023/02/22 08:18:12;;;;;;;7.67;2.63;;;;;;;1.06;100.00;101039.81;4991100;28;20038;-81
2023/02/22 08:20:41;;;;;;;6.83;2.40;;;;;;;1.18;100.00;101037.50;5009980;28;20092;-81
2023/02/22 08:23:09;;;;;;;7.93;3.77;;;;;;;1.35;100.00;101037.91;4996461;28;20089;-81
2023/02/22 08:25:36;;;;;;;7.40;4.10;;;;;;;1.48;100.00;101034.72;4973780;28;20096;-81
2023/02/22 08:28:08;;;;;;;9.93;3.03;;;;;;;1.64;100.00;101038.53;4980465;28;20034;-81
2023/02/22 08:30:36;;;;;;;8.03;3.90;;;;;;;1.76;100.00;101027.50;4991761;28;20042;-81
2023/02/22 08:33:05;;;;;;;7.97;3.83;;;;;;;1.88;100.00;101032.97;4978484;28;20049;-81
2023/02/22 08:35:33;;;;;;;9.70;4.30;;;;;;;2.04;100.00;101039.38;5001327;28;20057;-82
2023/02/22 08:38:02;;;;;;;11.40;4.00;;;;;;;2.19;100.00;101032.75;4996285;28;20395;-82
2023/02/22 08:40:31;;;;;;;7.67;3.50;;;;;;;2.35;100.00;101018.25;5012980;28;20487;-82
2023/02/22 08:42:58;;;;;;;6.23;3.67;;;;;;;2.51;100.00;101028.09;4992313;28;20046;-80
2023/02/22 08:45:24;;;;;;;11.80;3.40;;;;;;;2.65;100.00;101025.75;5003752;28;20038;-81
2023/02/22 08:47:51;;;;;;;7.87;3.20;;;;;;;2.82;100.00;101015.59;5007822;28;20045;-80
2023/02/22 08:50:23;;;;;;;7.73;3.03;;;;;;;2.98;100.00;101024.56;4992591;28;20073;-81
2023/02/22 08:52:52;;;;;;;5.37;2.43;;;;;;;3.11;100.00;101026.50;4992193;28;20136;-81
2023/02/22 08:55:20;;;;;;;9.17;2.63;;;;;;;3.26;100.00;101029.34;4993079;28;20044;-81
2023/02/22 08:57:47;;;;;;;4.90;2.60;;;;;;;3.37;100.00;101027.81;4992013;28;20049;-80
2023/02/22 09:00:14;;;;;;;10.93;3.23;;;;;;;3.48;100.00;101024.47;5008917;28;20487;-81
2023/02/22 09:02:41;;;;;;;8.00;3.03;;;;;;;3.61;100.00;101023.75;4990811;28;20058;-79
2023/02/22 09:05:08;;;;;;;10.97;4.87;;;;;;;3.74;100.00;101020.47;4992452;28;20080;-80
2023/02/22 09:07:34;;;;;;;9.57;5.50;;;;;;;3.80;100.00;101027.50;4978507;28;20050;-81
2023/02/22 09:10:01;;;;;;;10.87;5.30;;;;;;;3.94;100.00;101029.41;4989989;28;20046;-80
2023/02/22 09:12:28;;;;;;;15.60;6.90;;;;;;;4.02;100.00;101026.91;4975473;28;20080;-80
2023/02/22 09:14:54;;;;;;;10.90;6.23;;;;;;;4.15;100.00;101025.31;4977568;28;20042;-80
2023/02/22 09:17:21;;;;;;;10.70;5.83;;;;;;;4.28;100.00;101021.97;4993111;28;20058;-80
2023/02/22 09:19:47;;;;;;;7.63;4.63;;;;;;;4.35;100.00;101025.53;4997119;28;20050;-81
2023/02/22 09:22:14;;;;;;;11.50;4.33;;;;;;;4.47;100.00;101031.78;5013454;28;20096;-81
2023/02/22 09:24:42;;;;;;;15.80;4.60;;;;;;;4.61;100.00;101026.66;5013463;28;20038;-81
2023/02/22 09:27:10;;;;;;;11.37;4.47;;;;;;;4.81;100.00;101029.50;5012637;28;20089;-81
2023/02/22 09:29:38;;;;;;;10.00;3.67;;;;;;;5.05;100.00;101027.09;4995884;28;20035;-81
2023/02/22 09:32:05;;;;;;;9.20;4.40;;;;;;;5.19;100.00;101024.53;5013209;28;20049;-81
2023/02/22 09:34:34;;;;;;;11.20;3.87;;;;;;;5.29;100.00;101031.59;4998172;28;20041;-82
2023/02/22 09:37:00;;;;;;;18.90;4.80;;;;;;;5.46;100.00;101026.47;4993722;28;20045;-81
2023/02/22 09:39:28;;;;;;;13.43;4.90;;;;;;;5.45;100.00;101023.84;4995984;28;20037;-82
2023/02/22 09:42:22;;;;;;;10.47;3.37;;;;;;;5.63;100.00;101022.22;4986119;28;20419;-81
2023/02/22 09:44:58;;;;;;;;;;;;;;;5.74;100.00;101021.41;4988788;28;20061;-82
2023/02/22 09:47:58;;;;;;;8.63;3.93;;;;;;;5.94;100.00;101022.38;5002187;28;20385;-81
2023/02/22 09:50:43;;;;;;;;;;;;;;;6.16;100.00;101019.00;4962981;28;20058;-82
2023/02/22 09:53:28;;;;;;;14.00;3.53;;;;;;;6.25;100.00;101007.66;4993739;28;19926;-82
2023/02/22 09:55:59;;;;;;;15.40;4.40;;;;;;;6.42;100.00;101012.94;4977735;28;20051;-82
2023/02/22 09:58:41;;;;;;;13.93;4.53;;;;;;;6.58;100.00;101009.47;4990708;28;20042;-82
2023/02/22 10:01:27;;;;;;;13.87;3.67;;;;;;;6.71;100.00;101005.97;4989011;28;20045;-82
2023/02/22 10:04:11;;;;;;;10.97;3.90;;;;;;;6.88;100.00;101007.72;4995525;28;20496;-82
2023/02/22 10:06:38;;;;;;;10.32;4.13;;;;;;;7.03;100.00;101005.09;4976804;28;20092;-82
2023/02/22 10:09:06;;;;;;;15.17;4.40;;;;;;;7.18;100.00;100999.84;4993533;28;20423;-82
2023/02/22 10:11:33;;;;;;;13.37;4.17;;;;;;;7.18;100.00;100999.84;5009856;28;20056;-82
2023/02/22 10:14:04;;;;;;;18.37;3.97;;;;;;;7.28;100.00;100992.81;5006034;28;20042;-82
2023/02/22 10:16:42;;;;;;;9.73;3.27;;;;;;;7.38;100.00;100998.91;4995687;28;20053;-83
2023/02/22 10:19:16;;;;;;;10.20;3.10;;;;;;;7.37;100.00;100992.78;4995187;28;20077;-82
2023/02/22 10:22:06;;;;;;;12.95;4.75;;;;;;;7.45;100.00;100993.66;5012096;28;20033;-84
2023/02/22 10:24:55;;;;;;;13.63;3.83;;;;;;;7.55;100.00;100992.75;5011125;28;20041;-81
2023/02/22 10:27:38;;;;;;;10.53;3.80;;;;;;;7.65;97.94;100992.72;5001475;28;20050;-82
2023/02/22 10:30:15;;;;;;;12.73;3.30;;;;;;;7.62;98.91;100986.59;5001180;28;20447;-82
2023/02/22 10:33:04;;;;;;;10.37;3.70;;;;;;;7.74;98.08;100996.22;5010588;28;20057;-83
2023/02/22 10:35:35;;;;;;;14.67;4.30;;;;;;;7.76;97.32;100994.44;4978583;28;20085;-82
2023/02/22 10:38:15;;;;;;;17.53;4.10;;;;;;;7.85;93.60;100986.50;4988705;28;20586;-82
2023/02/22 10:40:53;;;;;;;12.33;3.70;;;;;;;7.84;96.12;100987.41;4997497;28;20105;-82
2023/02/22 10:43:20;;;;;;;11.10;3.60;;;;;;;7.89;95.46;100990.88;5002423;28;20072;-82
2023/02/22 10:45:47;;;;;;;10.07;3.97;;;;;;;7.96;89.27;100985.59;4978608;28;20052;-82
2023/02/22 10:48:17;;;;;;;15.27;4.50;;;;;;;8.02;91.50;100985.56;4979014;28;20384;-82
2023/02/22 10:50:45;;;;;;;11.30;4.00;;;;;;;8.08;91.57;100988.16;4989969;28;20066;-82
2023/02/22 10:53:14;;;;;;;15.43;3.80;;;;;;;8.02;88.90;100981.19;4991584;28;20042;-82
2023/02/22 10:56:08;;;;;;;9.23;3.23;;;;;;;8.12;92.26;100976.72;5010336;28;20041;-82
2023/02/22 10:58:56;;;;;;;7.00;3.50;;;;;;;8.18;91.33;100977.59;4993808;28;20120;-81
2023/02/22 11:01:32;;;;;;;12.07;3.20;;;;;;;8.23;89.41;100969.63;4991533;28;20060;-81
2023/02/22 11:04:09;;;;;;;14.53;4.03;;;;;;;8.32;89.90;100976.59;5010648;28;20100;-81
2023/02/22 11:06:36;;;;;;;13.10;4.30;;;;;;;8.27;90.13;100978.41;4978211;28;20034;-81
2023/02/22 11:09:11;;;;;;;7.67;3.10;;;;;;;8.32;92.25;100969.59;5026857;28;20038;-81
2023/02/22 11:11:43;;;;;;;10.93;3.20;;;;;;;8.42;88.78;100976.59;4994146;28;20034;-81
2023/02/22 11:14:11;;;;;;;10.90;3.43;;;;;;;8.52;84.45;100963.38;4993996;28;20569;-80
2023/02/22 11:16:50;;;;;;;16.50;6.60;;;;;;;8.60;84.52;100969.44;4992961;28;20527;-81
2023/02/22 11:19:25;;;;;;;13.67;4.63;;;;;;;8.57;84.18;100969.44;4993256;28;20046;-81
2023/02/22 11:21:55;;;;;;;8.23;2.60;;;;;;;8.48;82.78;100970.38;4979852;28;20054;-81
2023/02/22 11:24:23;;;;;;;11.60;4.00;;;;;;;8.64;82.82;100971.16;4977952;28;20050;-81
2023/02/22 11:26:55;;;;;;;7.77;3.13;;;;;;;8.57;86.24;100967.69;4992373;28;20042;-81
2023/02/22 11:29:32;;;;;;;9.97;3.47;;;;;;;8.64;87.64;100973.78;4974985;28;20053;-81
2023/02/22 11:32:12;;;;;;;7.70;3.13;;;;;;;8.66;85.21;100969.38;4974820;28;20058;-81
2023/02/22 11:34:41;;;;;;;16.00;4.27;;;;;;;8.49;85.06;100956.34;4989594;28;20049;-81
2023/02/22 11:37:17;;;;;;;14.88;4.32;;;;;;;8.52;82.61;100956.34;5009352;28;20097;-82